createdAt,value
2018-12-06T00:02:00.316Z,15.23
2018-12-06T00:05:06.177Z,14.13
2018-12-06T00:08:19.363Z,14.30
2018-12-06T00:11:23.868Z,17.07
2018-12-06T00:14:28.486Z,13.80
2018-12-06T00:17:33.093Z,12.67
2018-12-06T00:20:37.707Z,15.17
2018-12-06T00:23:42.250Z,13.50
2018-12-06T00:26:46.972Z,17.57
2018-12-06T00:30:08.432Z,16.60
2018-12-06T00:33:13.052Z,16.80
2018-12-06T00:36:17.613Z,17.53
2018-12-06T00:39:22.274Z,14.70
2018-12-06T00:42:26.859Z,16.93
2018-12-06T00:45:31.390Z,15.50
2018-12-06T00:48:36.121Z,17.63
2018-12-06T00:51:40.714Z,19.23
2018-12-06T00:54:45.278Z,18.60
2018-12-06T00:57:49.793Z,17.80
2018-12-06T01:00:54.902Z,22.73
2018-12-06T01:03:59.488Z,18.47
2018-12-06T01:07:04.190Z,16.50
2018-12-06T01:10:09.013Z,18.67
2018-12-06T01:13:13.583Z,14.97
2018-12-06T01:16:18.137Z,17.33
2018-12-06T01:19:22.791Z,14.73
2018-12-06T01:22:27.560Z,15.67
2018-12-06T01:25:32.260Z,15.83
2018-12-06T01:28:36.828Z,14.80
2018-12-06T01:31:41.499Z,20.70
2018-12-06T01:34:45.952Z,13.77
2018-12-06T01:37:50.655Z,12.13
2018-12-06T01:40:55.211Z,17.70
2018-12-06T01:43:59.967Z,19.30
2018-12-06T01:47:04.675Z,17.97
2018-12-06T01:50:09.494Z,16.60
2018-12-06T01:53:13.973Z,20.30
2018-12-06T01:56:18.552Z,16.63
2018-12-06T01:59:23.222Z,18.07
2018-12-06T02:02:27.763Z,19.77
2018-12-06T02:05:32.303Z,18.07
2018-12-06T02:08:36.875Z,19.47
2018-12-06T02:11:41.577Z,16.97
2018-12-06T02:14:46.063Z,21.33
2018-12-06T02:17:50.582Z,20.00
2018-12-06T02:20:55.108Z,18.57
2018-12-06T02:23:59.694Z,20.27
2018-12-06T02:27:04.381Z,19.17
2018-12-06T02:30:09.413Z,21.90
2018-12-06T02:33:13.967Z,22.13
2018-12-06T02:36:18.578Z,19.87
2018-12-06T02:39:23.090Z,25.37
2018-12-06T02:42:27.905Z,22.40
2018-12-06T02:45:32.474Z,25.80
2018-12-06T02:48:58.929Z,21.37
2018-12-06T02:52:03.431Z,19.87
2018-12-06T02:55:08.392Z,20.43
2018-12-06T02:58:13.081Z,19.20
2018-12-06T03:01:17.749Z,22.07
2018-12-06T03:04:22.443Z,19.93
2018-12-06T03:07:27.181Z,21.20
2018-12-06T03:10:31.760Z,18.03
2018-12-06T03:13:36.375Z,20.83
2018-12-06T03:16:40.991Z,20.00
2018-12-06T03:19:45.608Z,19.10
2018-12-06T03:22:50.377Z,21.90
2018-12-06T03:25:55.136Z,24.40
2018-12-06T03:28:59.677Z,21.87
2018-12-06T03:32:04.216Z,21.63
2018-12-06T03:35:08.778Z,21.50
2018-12-06T03:38:13.799Z,21.00
2018-12-06T03:41:18.560Z,20.00
2018-12-06T03:44:23.136Z,23.63
2018-12-06T03:47:27.626Z,22.77
2018-12-06T03:50:32.320Z,20.27
2018-12-06T03:53:36.804Z,20.80
2018-12-06T03:56:41.300Z,20.00
2018-12-06T03:59:45.877Z,20.20
2018-12-06T04:02:50.453Z,21.20
2018-12-06T04:05:55.032Z,18.90
2018-12-06T04:08:59.768Z,22.80
2018-12-06T04:12:04.351Z,23.63
2018-12-06T04:15:09.021Z,23.00
2018-12-06T04:18:13.547Z,22.00
2018-12-06T04:21:18.013Z,23.20
2018-12-06T04:24:22.528Z,20.23
2018-12-06T04:27:27.233Z,24.67
2018-12-06T04:30:31.773Z,24.10
2018-12-06T04:33:36.339Z,22.63
2018-12-06T04:36:40.970Z,21.67
2018-12-06T04:39:45.767Z,23.20
2018-12-06T04:42:50.354Z,18.87
2018-12-06T04:45:55.005Z,23.37
2018-12-06T04:48:59.490Z,20.60
2018-12-06T04:52:04.051Z,22.93
2018-12-06T04:55:09.398Z,20.93
2018-12-06T04:58:13.980Z,22.03
2018-12-06T05:01:18.604Z,20.60
2018-12-06T05:04:24.410Z,20.90
2018-12-06T05:07:29.067Z,20.37
2018-12-06T05:10:33.610Z,22.83
2018-12-06T05:13:38.252Z,22.70
2018-12-06T05:16:42.763Z,25.63
2018-12-06T05:19:47.305Z,23.97
2018-12-06T05:22:51.922Z,22.03
2018-12-06T05:25:56.532Z,20.83
2018-12-06T05:29:01.248Z,22.30
2018-12-06T05:32:05.831Z,21.33
2018-12-06T05:35:10.547Z,21.00
2018-12-06T05:38:15.213Z,21.23
2018-12-06T05:41:19.765Z,20.33
2018-12-06T05:44:24.328Z,24.50
2018-12-06T05:47:28.836Z,27.27
2018-12-06T05:50:33.385Z,22.90
2018-12-06T05:53:38.363Z,26.60
2018-12-06T05:56:42.870Z,29.27
2018-12-06T05:59:47.463Z,29.30
2018-12-06T06:02:52.022Z,29.03
2018-12-06T06:05:56.527Z,25.00
2018-12-06T06:09:02.392Z,26.17
2018-12-06T06:12:06.983Z,24.80
2018-12-06T06:15:11.960Z,26.00
2018-12-06T06:18:19.515Z,21.20
2018-12-06T06:21:24.121Z,22.20
2018-12-06T06:24:29.194Z,22.67
2018-12-06T06:27:33.799Z,23.50
2018-12-06T06:30:38.403Z,24.80
2018-12-06T06:33:43.057Z,24.53
2018-12-06T06:36:47.713Z,25.07
2018-12-06T06:39:52.210Z,21.30
2018-12-06T06:42:57.075Z,21.17
2018-12-06T06:46:01.572Z,25.63
2018-12-06T06:49:13.563Z,24.37
2018-12-06T06:52:12.781Z,21.47
2018-12-06T06:55:17.518Z,21.60
2018-12-06T06:58:22.014Z,19.40
2018-12-06T07:01:26.735Z,23.43
2018-12-06T07:04:31.269Z,20.80
2018-12-06T07:07:35.843Z,23.13
2018-12-06T07:10:40.410Z,16.60
2018-12-06T07:13:44.958Z,20.50
2018-12-06T07:16:49.585Z,19.87
2018-12-06T07:19:54.262Z,18.67
2018-12-06T07:22:58.779Z,20.87
2018-12-06T07:26:03.311Z,21.57
2018-12-06T07:29:07.901Z,24.30
2018-12-06T07:32:12.517Z,22.20
2018-12-06T07:35:17.277Z,21.93
2018-12-06T07:38:22.665Z,20.37
2018-12-06T07:41:27.391Z,22.53
2018-12-06T07:44:32.009Z,24.33
2018-12-06T07:47:40.311Z,20.37
2018-12-06T07:50:45.000Z,20.57
2018-12-06T07:53:50.222Z,20.37
2018-12-06T08:00:53.453Z,22.87
2018-12-06T08:03:58.050Z,23.53
2018-12-06T08:07:03.085Z,20.27
2018-12-06T08:10:08.868Z,23.90
2018-12-06T08:13:13.637Z,27.10
2018-12-06T08:16:18.284Z,21.37
2018-12-06T08:19:22.866Z,23.80
2018-12-06T08:22:27.927Z,20.97
2018-12-06T08:25:36.889Z,24.60
2018-12-06T08:28:41.652Z,20.83
2018-12-06T08:31:48.045Z,23.77
2018-12-06T08:34:52.578Z,25.17
2018-12-06T08:38:00.099Z,21.13
2018-12-06T08:41:04.625Z,23.63
2018-12-06T08:44:09.165Z,21.73
2018-12-06T08:47:13.721Z,21.00
2018-12-06T08:50:19.083Z,26.33
2018-12-06T08:53:23.685Z,25.20
2018-12-06T08:56:28.338Z,26.53
2018-12-06T08:59:32.830Z,24.53
2018-12-06T09:02:38.032Z,21.10
2018-12-06T09:05:42.625Z,25.37
2018-12-06T09:08:48.224Z,25.23
2018-12-06T09:11:52.782Z,24.93
2018-12-06T09:14:57.238Z,27.17
2018-12-06T09:18:02.301Z,26.07
2018-12-06T09:21:06.864Z,27.80
2018-12-06T09:24:11.355Z,25.60
2018-12-06T09:27:16.650Z,39.07
2018-12-06T09:30:21.288Z,26.87
2018-12-06T09:33:25.920Z,25.00
2018-12-06T09:36:30.631Z,24.53
2018-12-06T09:39:35.382Z,26.47
2018-12-06T09:42:40.125Z,24.80
2018-12-06T09:45:44.876Z,21.77
2018-12-06T09:48:49.403Z,19.70
2018-12-06T09:51:55.414Z,22.23
2018-12-06T09:55:00.045Z,20.70
2018-12-06T09:58:04.617Z,20.83
2018-12-06T10:01:09.188Z,23.03
2018-12-06T10:04:14.901Z,19.43
2018-12-06T10:07:19.494Z,21.93
2018-12-06T10:10:24.017Z,24.57
2018-12-06T10:13:28.592Z,19.37
2018-12-06T10:16:34.189Z,19.63
2018-12-06T10:19:43.322Z,21.10
2018-12-06T10:22:47.994Z,22.63
2018-12-06T10:25:52.614Z,21.20
2018-12-06T10:28:57.175Z,19.63
2018-12-06T10:32:02.110Z,20.53
2018-12-06T10:35:07.032Z,24.83
2018-12-06T10:38:13.566Z,22.67
2018-12-06T10:41:18.078Z,23.10
2018-12-06T10:44:32.544Z,24.57
2018-12-06T10:47:42.553Z,21.70
2018-12-06T10:50:51.674Z,21.33
2018-12-06T10:53:56.219Z,22.83
2018-12-06T10:57:00.811Z,25.03
2018-12-06T11:00:15.039Z,24.33
2018-12-06T11:06:54.737Z,22.57
2018-12-06T11:10:00.509Z,20.00
2018-12-06T11:13:05.108Z,52.00
2018-12-06T11:16:09.848Z,23.83
2018-12-06T11:19:14.346Z,24.93
2018-12-06T11:22:18.852Z,23.17
2018-12-06T11:25:27.476Z,23.37
2018-12-06T11:28:32.465Z,22.87
2018-12-06T11:31:37.134Z,24.67
2018-12-06T11:34:41.823Z,26.07
2018-12-06T11:41:08.050Z,22.87
2018-12-06T11:44:12.602Z,23.33
2018-12-06T11:47:17.225Z,20.80
2018-12-06T11:50:21.833Z,22.20
2018-12-06T11:53:26.432Z,25.83
2018-12-06T11:56:30.944Z,25.53
2018-12-06T11:59:35.501Z,31.33
2018-12-06T12:02:40.043Z,26.00
2018-12-06T12:08:59.963Z,24.30
2018-12-06T12:12:04.617Z,26.60
2018-12-06T12:15:09.560Z,22.53
2018-12-06T12:18:14.177Z,26.10
2018-12-06T12:21:19.065Z,25.17
2018-12-06T12:24:23.592Z,28.10
2018-12-06T12:27:28.224Z,25.00
2018-12-06T12:30:32.778Z,26.90
2018-12-06T12:33:37.694Z,33.47
2018-12-06T12:36:42.294Z,26.70
2018-12-06T12:39:46.920Z,23.57
2018-12-06T12:42:51.750Z,22.63
2018-12-06T12:45:56.422Z,24.47
2018-12-06T12:49:01.057Z,32.73
2018-12-06T12:52:05.635Z,23.67
2018-12-06T12:55:10.206Z,24.17
2018-12-06T12:58:14.681Z,27.03
2018-12-06T13:01:19.294Z,25.97
2018-12-06T13:04:23.864Z,27.23
2018-12-06T13:07:28.419Z,27.33
2018-12-06T13:10:32.915Z,26.00
2018-12-06T13:13:37.638Z,28.33
2018-12-06T13:16:42.191Z,22.07
2018-12-06T13:19:46.821Z,23.43
2018-12-06T13:22:51.425Z,22.90
2018-12-06T13:25:56.154Z,23.23
2018-12-06T13:29:00.745Z,23.90
2018-12-06T13:32:05.828Z,23.93
2018-12-06T13:35:10.531Z,25.93
2018-12-06T13:38:15.157Z,28.60
2018-12-06T13:41:19.740Z,27.43
2018-12-06T13:44:24.338Z,28.50
2018-12-06T13:47:31.598Z,26.90
2018-12-06T13:50:36.353Z,27.20
2018-12-06T13:53:41.451Z,25.97
2018-12-06T13:56:46.199Z,32.27
2018-12-06T13:59:50.775Z,29.10
2018-12-06T14:02:55.387Z,33.87
2018-12-06T14:05:59.992Z,29.67
2018-12-06T14:09:07.138Z,30.60
2018-12-06T14:12:11.636Z,30.27
2018-12-06T14:15:16.186Z,39.27
2018-12-06T14:18:20.878Z,46.73
2018-12-06T14:21:25.411Z,29.53
2018-12-06T14:24:30.278Z,32.53
2018-12-06T14:27:34.863Z,25.73
2018-12-06T14:30:39.770Z,24.20
2018-12-06T14:33:47.343Z,23.80
2018-12-06T14:37:01.695Z,22.77
2018-12-06T14:40:00.356Z,20.97
2018-12-06T14:43:05.114Z,25.50
2018-12-06T14:46:09.835Z,29.27
2018-12-06T14:49:14.485Z,28.97
2018-12-06T14:52:19.098Z,30.90
2018-12-06T14:55:23.885Z,27.10
2018-12-06T14:58:28.450Z,34.17
2018-12-06T15:01:33.145Z,27.97
2018-12-06T15:04:37.917Z,27.40
2018-12-06T15:07:42.878Z,33.77
2018-12-06T15:10:47.495Z,30.23
2018-12-06T15:13:52.142Z,35.23
2018-12-06T15:20:12.814Z,33.53
2018-12-06T15:23:17.378Z,28.60
2018-12-06T15:26:22.146Z,26.50
2018-12-06T15:29:27.011Z,27.40
2018-12-06T15:32:32.442Z,28.13
2018-12-06T15:35:37.215Z,26.23
2018-12-06T15:38:42.197Z,27.07
2018-12-06T15:41:46.718Z,26.23
2018-12-06T15:44:51.545Z,29.13
2018-12-06T15:47:56.248Z,39.87
2018-12-06T15:51:01.033Z,34.40
2018-12-06T15:54:05.762Z,34.60
2018-12-06T15:57:10.467Z,33.37
2018-12-06T16:00:15.491Z,29.53
2018-12-06T16:03:20.187Z,30.30
2018-12-06T16:06:25.133Z,31.67
2018-12-06T16:09:29.838Z,30.67
2018-12-06T16:12:34.764Z,32.23
2018-12-06T16:15:42.033Z,31.03
2018-12-06T16:18:56.335Z,30.93
2018-12-06T16:22:01.435Z,28.00
2018-12-06T16:25:07.478Z,27.20
2018-12-06T16:28:12.246Z,26.93
2018-12-06T16:31:16.909Z,49.57
2018-12-06T16:34:21.808Z,37.00
2018-12-06T16:37:30.837Z,45.50
2018-12-06T16:40:36.811Z,27.30
2018-12-06T16:43:41.797Z,36.73
2018-12-06T16:46:46.459Z,36.80
2018-12-06T16:49:51.478Z,36.07
2018-12-06T16:52:56.467Z,34.37
2018-12-06T16:56:01.136Z,35.23
2018-12-06T16:59:06.096Z,36.17
2018-12-06T17:02:10.766Z,37.67
2018-12-06T17:05:15.468Z,37.93
2018-12-06T17:08:20.140Z,33.27
2018-12-06T17:11:25.448Z,29.60
2018-12-06T17:14:30.238Z,30.37
2018-12-06T17:17:34.763Z,32.23
2018-12-06T17:20:39.539Z,30.73
2018-12-06T17:23:44.119Z,29.67
2018-12-06T17:26:48.584Z,33.60
2018-12-06T17:29:53.431Z,45.17
2018-12-06T17:32:58.104Z,35.77
2018-12-06T17:36:02.716Z,35.83
2018-12-06T17:39:10.878Z,37.63
2018-12-06T17:42:16.389Z,34.33
2018-12-06T17:45:21.278Z,69.63
2018-12-06T17:48:25.843Z,58.00
2018-12-06T17:51:30.855Z,64.90
2018-12-06T17:54:38.069Z,60.63
2018-12-06T17:57:42.803Z,53.80
2018-12-06T18:00:54.938Z,53.63
2018-12-06T18:03:59.753Z,48.67
2018-12-06T18:07:07.038Z,57.20
2018-12-06T18:10:13.408Z,52.40
2018-12-06T18:13:18.174Z,53.60
2018-12-06T18:16:22.921Z,86.90
2018-12-06T18:19:27.576Z,59.10
2018-12-06T18:22:33.288Z,60.03
2018-12-06T18:25:38.512Z,51.43
2018-12-06T18:28:43.062Z,57.73
2018-12-06T18:31:47.745Z,59.77
2018-12-06T18:34:53.002Z,56.27
2018-12-06T18:37:57.694Z,51.60
2018-12-06T18:41:02.231Z,44.87
2018-12-06T18:44:07.038Z,42.57
2018-12-06T18:47:11.783Z,42.60
2018-12-06T18:50:16.621Z,48.93
2018-12-06T18:53:21.219Z,104.03
2018-12-06T18:56:26.205Z,44.73
2018-12-06T18:59:31.155Z,74.00
2018-12-06T19:02:35.812Z,50.70
2018-12-06T19:05:40.912Z,52.47
2018-12-06T19:08:45.666Z,44.07
2018-12-06T19:11:50.365Z,57.20
2018-12-06T19:14:54.950Z,44.23
2018-12-06T19:17:59.682Z,48.27
2018-12-06T19:21:04.523Z,48.97
2018-12-06T19:24:09.222Z,59.00
2018-12-06T19:27:14.012Z,48.87
2018-12-06T19:30:19.975Z,45.20
2018-12-06T19:33:24.606Z,42.77
2018-12-06T19:36:29.626Z,43.47
2018-12-06T19:39:34.358Z,43.63
2018-12-06T19:42:39.176Z,54.53
2018-12-06T19:45:44.029Z,48.90
2018-12-06T19:48:49.143Z,48.67
2018-12-06T19:51:54.284Z,53.70
2018-12-06T19:54:59.252Z,36.63
2018-12-06T19:58:04.134Z,36.07
2018-12-06T20:01:08.813Z,35.03
2018-12-06T20:04:13.800Z,46.90
2018-12-06T20:07:18.588Z,48.70
2018-12-06T20:10:23.776Z,55.43
2018-12-06T20:13:28.687Z,65.87
2018-12-06T20:16:33.439Z,66.67
2018-12-06T20:19:38.267Z,59.67
2018-12-06T20:22:43.143Z,62.50
2018-12-06T20:25:47.755Z,67.43
2018-12-06T20:28:52.464Z,56.33
2018-12-06T20:31:58.078Z,62.57
2018-12-06T20:35:02.895Z,58.93
2018-12-06T20:38:07.703Z,65.90
2018-12-06T20:41:12.303Z,67.27
2018-12-06T20:44:17.315Z,55.33
2018-12-06T20:47:21.934Z,62.17
2018-12-06T20:50:26.676Z,61.17
2018-12-06T20:53:31.563Z,62.77
2018-12-06T20:56:36.186Z,52.30
2018-12-06T20:59:41.150Z,53.07
2018-12-06T21:02:45.648Z,48.43
2018-12-06T21:05:50.630Z,51.57
2018-12-06T21:08:55.237Z,46.80
2018-12-06T21:11:59.881Z,47.70
2018-12-06T21:15:04.871Z,65.40
2018-12-06T21:18:09.564Z,58.47
2018-12-06T21:21:14.178Z,45.77
2018-12-06T21:24:18.880Z,40.50
2018-12-06T21:27:23.496Z,37.23
2018-12-06T21:30:28.103Z,33.70
2018-12-06T21:33:32.831Z,33.57
2018-12-06T21:36:37.535Z,33.53
2018-12-06T21:39:42.230Z,30.10
2018-12-06T21:42:46.919Z,24.30
2018-12-06T21:45:51.681Z,20.77
2018-12-06T21:48:56.393Z,26.70
2018-12-06T21:52:01.099Z,23.20
2018-12-06T21:55:06.544Z,24.50
2018-12-06T21:58:11.371Z,20.57
2018-12-06T22:01:15.991Z,23.37
2018-12-06T22:04:20.602Z,22.37
2018-12-06T22:07:25.344Z,29.97
2018-12-06T22:10:31.022Z,25.50
2018-12-06T22:13:35.757Z,5.90
2018-12-06T22:16:40.408Z,26.40
2018-12-06T22:19:45.175Z,9.70
2018-12-06T22:22:49.835Z,10.40
2018-12-06T22:25:54.405Z,8.73
2018-12-06T22:28:58.973Z,15.07
2018-12-06T22:32:03.595Z,12.00
2018-12-06T22:35:08.387Z,10.30
2018-12-06T22:38:12.988Z,5.83
2018-12-06T22:41:17.636Z,5.90
2018-12-06T22:44:22.488Z,5.20
2018-12-06T22:47:27.167Z,8.07
2018-12-06T22:50:31.905Z,6.23
2018-12-06T22:53:36.549Z,6.00
2018-12-06T22:56:41.162Z,5.93
2018-12-06T22:59:45.806Z,5.20
2018-12-06T23:02:50.385Z,12.83
2018-12-06T23:05:55.580Z,7.43
2018-12-06T23:09:00.189Z,24.50
2018-12-06T23:12:04.761Z,12.33
2018-12-06T23:15:09.625Z,10.73
2018-12-06T23:18:14.591Z,7.73
2018-12-06T23:21:19.173Z,6.80
2018-12-06T23:24:23.775Z,5.53
2018-12-06T23:27:28.456Z,3.77
2018-12-06T23:30:33.062Z,3.30
2018-12-06T23:33:37.601Z,4.57
2018-12-06T23:39:58.796Z,3.70
2018-12-06T23:43:03.735Z,3.03
2018-12-06T23:46:08.535Z,2.97
2018-12-06T23:49:13.129Z,2.90
2018-12-06T23:52:17.825Z,2.90
2018-12-06T23:55:22.382Z,3.67
2018-12-06T23:58:27.008Z,2.37
